Aeroporto :
LOGIN :

Iscrizione | Disclaimer

   EN    FR    IT 

 










Sommario :    VFR   VFR Marginale   IFR   IFR Intensivo   IFR Molto Intensivo
Visibilità : 
Base nubi : 
>= 8 km
>= 3000ft
5 / 8 km
1000 / 3000 ft
1500m / 5 km
500 / 1000 ft
800 / 1500m
200 / 500 ft
< 800m
< 200 ft
Simboli :   Temporali  Nebbia  Neve Forte  Precipitazioni Forti  Vento > 20 kt
SIGMETs :   Varie  Temporali  Ghiacco  Turbolenza  Onda orograficha  Ceneri Vulcaniche







- Altitudine del aeroporto : 101 ft
- Codice IATA : GLO
- Carte del aeroporto


EGBJ - Gloucestershire

ULTIMO METAR :
  • 191220Z 19012KT 160V220 9999 FEW005 BKN010 OVC040 20/17 Q1008

METARs OBSOLETI :
  • 191150Z 18012KT 9999 VCSH FEW005 BKN010 BKN040 19/17 Q1008
  • 191120Z 18012KT 9999 VCSH FEW006 BKN011 19/17 Q1008
  • 191050Z 18011KT 150V230 9999 VCSH SCT006 BKN012 BKN040 18/16 Q1008
  • 191020Z 19008G21KT 150V240 9999 FEW005 SCT013 17/16 Q1008 RERA
  • 190950Z 17010KT 150V220 7000 RA FEW006 BKN011 16/15 Q1008

TAF TAF EGBJ
Valido dal 19 a 12 ore il 19 a 19 ore UTC


191118Z 1912/1919 17006KT 9999 BKN012
BECMG 1912/1914 23012KT
TEMPO 1912/1915 7000 SHRA BKN006
PROB30
TEMPO 1912/1919 24015G25KT 4000 +SHRA
Nessun NOTAM noto per questo aeroporto.



MetMap, La meteo Aeronautica in un colpo d'occhio ! - Copyright ORBIFLY Dicembre 2007 - Disclaimer

ORBIFLY MET'MAP TEAM :

Programmazione e sviluppo : Alexandra Zaïnal
Concezione e sviluppo : Baudouin d'Aumeries
Co-Programmazione e sviluppo : Marc-Olivier Méhu
Supporto tecnico e logistico : Manuel Goepfert
Aiuto per la traduzione : Arnaldo La Scala

Contatto : metmap@orbifly.com




FONTI E CREDITI :

   NOAA